sensor_id;sensor_type;location;lat;lon;timestamp;P1;durP1;ratioP1;P2;durP2;ratioP2
32864;SDS011;19219;44.500;11.188;2022-07-23T00:01:22;10.80;;;6.82;;
32864;SDS011;19219;44.500;11.188;2022-07-23T00:03:48;13.68;;;7.82;;
32864;SDS011;19219;44.500;11.188;2022-07-23T00:06:14;9.70;;;7.55;;
32864;SDS011;19219;44.500;11.188;2022-07-23T00:08:40;12.32;;;8.13;;
32864;SDS011;19219;44.500;11.188;2022-07-23T00:11:06;12.50;;;8.30;;
32864;SDS011;19219;44.500;11.188;2022-07-23T00:13:32;13.77;;;8.25;;
32864;SDS011;19219;44.500;11.188;2022-07-23T00:15:58;10.57;;;8.63;;
32864;SDS011;19219;44.500;11.188;2022-07-23T00:18:23;10.23;;;7.72;;
32864;SDS011;19219;44.500;11.188;2022-07-23T00:20:49;14.00;;;8.95;;
32864;SDS011;19219;44.500;11.188;2022-07-23T00:23:16;11.07;;;8.38;;
32864;SDS011;19219;44.500;11.188;2022-07-23T00:25:42;10.55;;;8.10;;
32864;SDS011;19219;44.500;11.188;2022-07-23T00:28:07;10.18;;;8.57;;
32864;SDS011;19219;44.500;11.188;2022-07-23T00:30:33;13.57;;;7.90;;
32864;SDS011;19219;44.500;11.188;2022-07-23T00:33:00;11.80;;;7.85;;
32864;SDS011;19219;44.500;11.188;2022-07-23T00:35:29;9.57;;;7.55;;
32864;SDS011;19219;44.500;11.188;2022-07-23T00:37:58;12.10;;;8.13;;
32864;SDS011;19219;44.500;11.188;2022-07-23T00:40:25;14.90;;;8.18;;
32864;SDS011;19219;44.500;11.188;2022-07-23T00:42:52;12.45;;;8.20;;
32864;SDS011;19219;44.500;11.188;2022-07-23T00:45:18;11.68;;;8.20;;
32864;SDS011;19219;44.500;11.188;2022-07-23T00:47:44;11.52;;;8.57;;
32864;SDS011;19219;44.500;11.188;2022-07-23T00:50:10;10.70;;;8.52;;
32864;SDS011;19219;44.500;11.188;2022-07-23T00:52:37;11.02;;;7.82;;
32864;SDS011;19219;44.500;11.188;2022-07-23T00:55:04;16.23;;;7.93;;
32864;SDS011;19219;44.500;11.188;2022-07-23T00:57:31;10.80;;;8.27;;
32864;SDS011;19219;44.500;11.188;2022-07-23T00:59:57;10.02;;;8.13;;
32864;SDS011;19219;44.500;11.188;2022-07-23T01:02:24;11.88;;;9.23;;
32864;SDS011;19219;44.500;11.188;2022-07-23T01:04:50;12.98;;;8.38;;
32864;SDS011;19219;44.500;11.188;2022-07-23T01:07:17;8.35;;;7.32;;
32864;SDS011;19219;44.500;11.188;2022-07-23T01:09:44;13.60;;;8.30;;
32864;SDS011;19219;44.500;11.188;2022-07-23T01:12:10;10.77;;;8.23;;
32864;SDS011;19219;44.500;11.188;2022-07-23T01:14:36;13.18;;;8.85;;
32864;SDS011;19219;44.500;11.188;2022-07-23T01:17:02;9.98;;;8.88;;
32864;SDS011;19219;44.500;11.188;2022-07-23T01:19:27;11.57;;;8.82;;
32864;SDS011;19219;44.500;11.188;2022-07-23T01:21:53;10.32;;;8.55;;
32864;SDS011;19219;44.500;11.188;2022-07-23T01:24:22;15.40;;;9.20;;
32864;SDS011;19219;44.500;11.188;2022-07-23T01:26:48;15.35;;;9.40;;
32864;SDS011;19219;44.500;11.188;2022-07-23T01:29:15;11.55;;;8.75;;
32864;SDS011;19219;44.500;11.188;2022-07-23T01:31:41;12.57;;;8.88;;
32864;SDS011;19219;44.500;11.188;2022-07-23T01:34:08;11.48;;;9.52;;
32864;SDS011;19219;44.500;11.188;2022-07-23T01:36:34;10.80;;;9.38;;
32864;SDS011;19219;44.500;11.188;2022-07-23T01:39:01;8.95;;;7.90;;
32864;SDS011;19219;44.500;11.188;2022-07-23T01:41:28;9.32;;;8.35;;
32864;SDS011;19219;44.500;11.188;2022-07-23T01:43:54;10.75;;;8.98;;
32864;SDS011;19219;44.500;11.188;2022-07-23T01:46:20;11.13;;;8.57;;
32864;SDS011;19219;44.500;11.188;2022-07-23T01:48:45;10.13;;;8.23;;
32864;SDS011;19219;44.500;11.188;2022-07-23T01:51:11;12.93;;;7.93;;
32864;SDS011;19219;44.500;11.188;2022-07-23T01:53:37;12.90;;;9.55;;
32864;SDS011;19219;44.500;11.188;2022-07-23T01:56:03;10.70;;;8.13;;
32864;SDS011;19219;44.500;11.188;2022-07-23T01:58:29;11.90;;;8.70;;
32864;SDS011;19219;44.500;11.188;2022-07-23T02:00:55;18.58;;;10.75;;
32864;SDS011;19219;44.500;11.188;2022-07-23T02:03:21;10.65;;;8.30;;
32864;SDS011;19219;44.500;11.188;2022-07-23T02:05:46;11.57;;;9.43;;
32864;SDS011;19219;44.500;11.188;2022-07-23T02:08:12;11.30;;;8.77;;
32864;SDS011;19219;44.500;11.188;2022-07-23T02:10:38;13.82;;;9.45;;
32864;SDS011;19219;44.500;11.188;2022-07-23T02:13:04;10.27;;;8.48;;
32864;SDS011;19219;44.500;11.188;2022-07-23T02:15:29;16.20;;;8.93;;
32864;SDS011;19219;44.500;11.188;2022-07-23T02:17:55;9.52;;;8.43;;
32864;SDS011;19219;44.500;11.188;2022-07-23T02:20:21;11.75;;;8.95;;
32864;SDS011;19219;44.500;11.188;2022-07-23T02:22:47;9.88;;;8.13;;
32864;SDS011;19219;44.500;11.188;2022-07-23T02:25:13;12.18;;;8.32;;
32864;SDS011;19219;44.500;11.188;2022-07-23T02:27:39;10.88;;;8.55;;
32864;SDS011;19219;44.500;11.188;2022-07-23T02:30:05;13.90;;;8.63;;
32864;SDS011;19219;44.500;11.188;2022-07-23T02:32:31;9.73;;;8.75;;
32864;SDS011;19219;44.500;11.188;2022-07-23T02:34:57;14.02;;;9.25;;
32864;SDS011;19219;44.500;11.188;2022-07-23T02:37:23;10.15;;;9.07;;
32864;SDS011;19219;44.500;11.188;2022-07-23T02:39:49;11.07;;;8.93;;
32864;SDS011;19219;44.500;11.188;2022-07-23T02:42:14;11.75;;;9.15;;
32864;SDS011;19219;44.500;11.188;2022-07-23T02:44:41;11.25;;;9.52;;
32864;SDS011;19219;44.500;11.188;2022-07-23T02:47:06;17.58;;;9.73;;
32864;SDS011;19219;44.500;11.188;2022-07-23T02:49:32;12.23;;;8.88;;
32864;SDS011;19219;44.500;11.188;2022-07-23T02:51:58;12.73;;;8.90;;
32864;SDS011;19219;44.500;11.188;2022-07-23T02:54:24;14.23;;;8.98;;
32864;SDS011;19219;44.500;11.188;2022-07-23T02:56:50;14.13;;;9.45;;
32864;SDS011;19219;44.500;11.188;2022-07-23T02:59:16;11.30;;;9.00;;
32864;SDS011;19219;44.500;11.188;2022-07-23T03:01:42;10.90;;;8.93;;
32864;SDS011;19219;44.500;11.188;2022-07-23T03:04:08;14.38;;;8.73;;
32864;SDS011;19219;44.500;11.188;2022-07-23T03:06:34;14.88;;;9.55;;
32864;SDS011;19219;44.500;11.188;2022-07-23T03:09:00;12.23;;;9.75;;
32864;SDS011;19219;44.500;11.188;2022-07-23T03:11:26;13.45;;;9.60;;
32864;SDS011;19219;44.500;11.188;2022-07-23T03:13:51;15.18;;;9.73;;
32864;SDS011;19219;44.500;11.188;2022-07-23T03:16:17;21.00;;;9.75;;
32864;SDS011;19219;44.500;11.188;2022-07-23T03:18:43;11.07;;;9.38;;
32864;SDS011;19219;44.500;11.188;2022-07-23T03:21:08;14.27;;;9.75;;
32864;SDS011;19219;44.500;11.188;2022-07-23T03:23:34;12.25;;;9.20;;
32864;SDS011;19219;44.500;11.188;2022-07-23T03:26:00;11.45;;;9.27;;
32864;SDS011;19219;44.500;11.188;2022-07-23T03:28:25;15.70;;;9.50;;
32864;SDS011;19219;44.500;11.188;2022-07-23T03:30:51;12.15;;;10.30;;
32864;SDS011;19219;44.500;11.188;2022-07-23T03:33:17;12.07;;;9.52;;
32864;SDS011;19219;44.500;11.188;2022-07-23T03:35:44;11.43;;;9.40;;
32864;SDS011;19219;44.500;11.188;2022-07-23T03:38:11;10.40;;;9.25;;
32864;SDS011;19219;44.500;11.188;2022-07-23T03:40:37;10.55;;;9.07;;
32864;SDS011;19219;44.500;11.188;2022-07-23T03:43:03;13.63;;;9.45;;
32864;SDS011;19219;44.500;11.188;2022-07-23T03:45:29;14.32;;;8.57;;
32864;SDS011;19219;44.500;11.188;2022-07-23T03:47:55;16.38;;;8.65;;
32864;SDS011;19219;44.500;11.188;2022-07-23T03:50:21;12.43;;;9.35;;
32864;SDS011;19219;44.500;11.188;2022-07-23T03:52:47;13.20;;;10.60;;
32864;SDS011;19219;44.500;11.188;2022-07-23T03:55:13;14.48;;;11.05;;
32864;SDS011;19219;44.500;11.188;2022-07-23T03:57:39;16.17;;;10.10;;
32864;SDS011;19219;44.500;11.188;2022-07-23T04:00:05;12.48;;;9.23;;
32864;SDS011;19219;44.500;11.188;2022-07-23T04:02:34;13.32;;;9.02;;
32864;SDS011;19219;44.500;11.188;2022-07-23T04:05:01;12.50;;;8.23;;
32864;SDS011;19219;44.500;11.188;2022-07-23T04:07:26;12.80;;;9.75;;
32864;SDS011;19219;44.500;11.188;2022-07-23T04:09:52;13.00;;;9.40;;
32864;SDS011;19219;44.500;11.188;2022-07-23T04:12:18;13.73;;;9.23;;
32864;SDS011;19219;44.500;11.188;2022-07-23T04:14:44;12.65;;;8.18;;
32864;SDS011;19219;44.500;11.188;2022-07-23T04:17:10;11.88;;;9.25;;
32864;SDS011;19219;44.500;11.188;2022-07-23T04:19:37;15.30;;;9.15;;
32864;SDS011;19219;44.500;11.188;2022-07-23T04:22:05;11.95;;;8.73;;
32864;SDS011;19219;44.500;11.188;2022-07-23T04:24:32;11.07;;;9.00;;
32864;SDS011;19219;44.500;11.188;2022-07-23T04:26:58;16.23;;;9.07;;
32864;SDS011;19219;44.500;11.188;2022-07-23T04:29:24;11.48;;;8.80;;
32864;SDS011;19219;44.500;11.188;2022-07-23T04:31:50;13.05;;;8.15;;
32864;SDS011;19219;44.500;11.188;2022-07-23T04:34:16;10.88;;;8.85;;
32864;SDS011;19219;44.500;11.188;2022-07-23T04:36:41;15.80;;;9.18;;
32864;SDS011;19219;44.500;11.188;2022-07-23T04:39:07;12.32;;;9.27;;
32864;SDS011;19219;44.500;11.188;2022-07-23T04:41:33;10.43;;;8.45;;
32864;SDS011;19219;44.500;11.188;2022-07-23T04:43:59;24.63;;;9.77;;
32864;SDS011;19219;44.500;11.188;2022-07-23T04:46:25;14.70;;;9.38;;
32864;SDS011;19219;44.500;11.188;2022-07-23T04:48:51;13.60;;;9.70;;
32864;SDS011;19219;44.500;11.188;2022-07-23T04:51:17;17.95;;;9.68;;
32864;SDS011;19219;44.500;11.188;2022-07-23T04:53:42;18.25;;;9.02;;
32864;SDS011;19219;44.500;11.188;2022-07-23T04:56:08;16.60;;;8.70;;
32864;SDS011;19219;44.500;11.188;2022-07-23T04:58:34;15.07;;;9.25;;
32864;SDS011;19219;44.500;11.188;2022-07-23T05:01:00;13.20;;;9.93;;
32864;SDS011;19219;44.500;11.188;2022-07-23T05:03:26;53.90;;;23.67;;
32864;SDS011;19219;44.500;11.188;2022-07-23T05:05:51;31.40;;;21.02;;
32864;SDS011;19219;44.500;11.188;2022-07-23T05:08:17;35.72;;;19.17;;
32864;SDS011;19219;44.500;11.188;2022-07-23T05:10:43;31.63;;;16.95;;
32864;SDS011;19219;44.500;11.188;2022-07-23T05:13:08;30.42;;;15.05;;
32864;SDS011;19219;44.500;11.188;2022-07-23T05:15:34;33.03;;;13.82;;
32864;SDS011;19219;44.500;11.188;2022-07-23T05:18:00;24.35;;;10.48;;
32864;SDS011;19219;44.500;11.188;2022-07-23T05:20:26;18.08;;;10.77;;
32864;SDS011;19219;44.500;11.188;2022-07-23T05:22:51;14.55;;;9.98;;
32864;SDS011;19219;44.500;11.188;2022-07-23T05:25:17;18.73;;;10.30;;
32864;SDS011;19219;44.500;11.188;2022-07-23T05:27:43;16.15;;;10.18;;
32864;SDS011;19219;44.500;11.188;2022-07-23T05:30:09;21.90;;;9.65;;
32864;SDS011;19219;44.500;11.188;2022-07-23T05:32:35;19.95;;;10.15;;
32864;SDS011;19219;44.500;11.188;2022-07-23T05:35:04;14.85;;;9.88;;
32864;SDS011;19219;44.500;11.188;2022-07-23T05:37:31;24.30;;;9.85;;
32864;SDS011;19219;44.500;11.188;2022-07-23T05:40:03;12.98;;;9.73;;
32864;SDS011;19219;44.500;11.188;2022-07-23T05:42:32;18.25;;;9.32;;
32864;SDS011;19219;44.500;11.188;2022-07-23T05:45:02;11.52;;;8.07;;
32864;SDS011;19219;44.500;11.188;2022-07-23T05:47:28;14.52;;;9.35;;
32864;SDS011;19219;44.500;11.188;2022-07-23T05:49:54;14.65;;;8.45;;
32864;SDS011;19219;44.500;11.188;2022-07-23T05:52:19;18.88;;;9.55;;
32864;SDS011;19219;44.500;11.188;2022-07-23T05:54:46;12.93;;;9.50;;
32864;SDS011;19219;44.500;11.188;2022-07-23T05:57:14;13.52;;;8.77;;
32864;SDS011;19219;44.500;11.188;2022-07-23T05:59:40;15.48;;;8.48;;
32864;SDS011;19219;44.500;11.188;2022-07-23T06:02:05;12.98;;;9.02;;
32864;SDS011;19219;44.500;11.188;2022-07-23T06:04:32;16.33;;;9.15;;
32864;SDS011;19219;44.500;11.188;2022-07-23T06:06:57;12.88;;;8.48;;
32864;SDS011;19219;44.500;11.188;2022-07-23T06:09:23;14.85;;;8.15;;
32864;SDS011;19219;44.500;11.188;2022-07-23T06:11:49;18.08;;;8.20;;
32864;SDS011;19219;44.500;11.188;2022-07-23T06:14:14;10.93;;;8.30;;
32864;SDS011;19219;44.500;11.188;2022-07-23T06:16:40;11.88;;;8.40;;
32864;SDS011;19219;44.500;11.188;2022-07-23T06:19:06;12.18;;;8.23;;
32864;SDS011;19219;44.500;11.188;2022-07-23T06:21:31;12.77;;;9.43;;
32864;SDS011;19219;44.500;11.188;2022-07-23T06:23:57;13.98;;;9.38;;
32864;SDS011;19219;44.500;11.188;2022-07-23T06:26:23;18.13;;;11.70;;
32864;SDS011;19219;44.500;11.188;2022-07-23T06:28:49;17.00;;;12.55;;
32864;SDS011;19219;44.500;11.188;2022-07-23T06:31:14;19.77;;;10.45;;
32864;SDS011;19219;44.500;11.188;2022-07-23T06:33:40;15.73;;;10.32;;
32864;SDS011;19219;44.500;11.188;2022-07-23T06:36:06;18.40;;;10.40;;
32864;SDS011;19219;44.500;11.188;2022-07-23T06:38:32;17.75;;;10.75;;
32864;SDS011;19219;44.500;11.188;2022-07-23T06:41:00;11.48;;;10.07;;
32864;SDS011;19219;44.500;11.188;2022-07-23T06:43:25;13.45;;;9.45;;
32864;SDS011;19219;44.500;11.188;2022-07-23T06:45:51;13.50;;;9.65;;
32864;SDS011;19219;44.500;11.188;2022-07-23T06:48:17;10.75;;;9.50;;
32864;SDS011;19219;44.500;11.188;2022-07-23T06:50:43;13.35;;;9.18;;
32864;SDS011;19219;44.500;11.188;2022-07-23T06:53:08;13.40;;;9.10;;
32864;SDS011;19219;44.500;11.188;2022-07-23T06:55:34;13.25;;;9.05;;
32864;SDS011;19219;44.500;11.188;2022-07-23T06:58:03;12.52;;;8.95;;
32864;SDS011;19219;44.500;11.188;2022-07-23T07:00:29;14.02;;;9.13;;
32864;SDS011;19219;44.500;11.188;2022-07-23T07:02:56;12.73;;;10.70;;
32864;SDS011;19219;44.500;11.188;2022-07-23T07:05:22;13.60;;;9.23;;
32864;SDS011;19219;44.500;11.188;2022-07-23T07:07:50;20.13;;;11.50;;
32864;SDS011;19219;44.500;11.188;2022-07-23T07:25:48;13.70;;;8.27;;
32864;SDS011;19219;44.500;11.188;2022-07-23T07:28:16;13.98;;;8.68;;
32864;SDS011;19219;44.500;11.188;2022-07-23T07:30:41;9.02;;;7.28;;
32864;SDS011;19219;44.500;11.188;2022-07-23T07:33:07;13.57;;;9.10;;
32864;SDS011;19219;44.500;11.188;2022-07-23T07:35:33;9.40;;;7.95;;
32864;SDS011;19219;44.500;11.188;2022-07-23T07:37:59;12.63;;;8.20;;
32864;SDS011;19219;44.500;11.188;2022-07-23T07:40:25;11.80;;;7.25;;
32864;SDS011;19219;44.500;11.188;2022-07-23T07:42:51;11.85;;;8.82;;
32864;SDS011;19219;44.500;11.188;2022-07-23T07:45:21;10.40;;;8.10;;
32864;SDS011;19219;44.500;11.188;2022-07-23T07:47:48;10.05;;;7.60;;
32864;SDS011;19219;44.500;11.188;2022-07-23T07:50:14;11.55;;;7.90;;
32864;SDS011;19219;44.500;11.188;2022-07-23T07:52:39;9.70;;;7.55;;
32864;SDS011;19219;44.500;11.188;2022-07-23T07:55:06;8.82;;;7.53;;
32864;SDS011;19219;44.500;11.188;2022-07-23T07:57:34;10.27;;;7.20;;
32864;SDS011;19219;44.500;11.188;2022-07-23T08:00:00;12.73;;;6.90;;
32864;SDS011;19219;44.500;11.188;2022-07-23T08:02:26;10.32;;;7.53;;
32864;SDS011;19219;44.500;11.188;2022-07-23T08:04:52;8.73;;;6.63;;
32864;SDS011;19219;44.500;11.188;2022-07-23T08:07:18;8.77;;;6.65;;
32864;SDS011;19219;44.500;11.188;2022-07-23T08:09:44;10.13;;;7.47;;
32864;SDS011;19219;44.500;11.188;2022-07-23T08:12:09;11.35;;;7.00;;
32864;SDS011;19219;44.500;11.188;2022-07-23T08:14:35;8.75;;;6.90;;
32864;SDS011;19219;44.500;11.188;2022-07-23T08:17:02;7.97;;;6.65;;
32864;SDS011;19219;44.500;11.188;2022-07-23T08:19:28;11.85;;;6.72;;
32864;SDS011;19219;44.500;11.188;2022-07-23T08:21:54;10.95;;;7.97;;
32864;SDS011;19219;44.500;11.188;2022-07-23T08:24:19;10.20;;;7.10;;
32864;SDS011;19219;44.500;11.188;2022-07-23T08:26:45;8.35;;;7.43;;
32864;SDS011;19219;44.500;11.188;2022-07-23T08:29:10;11.20;;;7.07;;
32864;SDS011;19219;44.500;11.188;2022-07-23T08:31:36;10.52;;;6.30;;
32864;SDS011;19219;44.500;11.188;2022-07-23T08:34:02;14.45;;;6.10;;
32864;SDS011;19219;44.500;11.188;2022-07-23T08:36:28;14.27;;;6.95;;
32864;SDS011;19219;44.500;11.188;2022-07-23T08:38:57;13.10;;;7.55;;
32864;SDS011;19219;44.500;11.188;2022-07-23T08:41:24;9.75;;;6.72;;
32864;SDS011;19219;44.500;11.188;2022-07-23T08:43:49;10.55;;;6.45;;
32864;SDS011;19219;44.500;11.188;2022-07-23T08:46:18;10.90;;;7.00;;
32864;SDS011;19219;44.500;11.188;2022-07-23T08:48:47;9.52;;;7.07;;
32864;SDS011;19219;44.500;11.188;2022-07-23T08:51:14;13.73;;;8.90;;
32864;SDS011;19219;44.500;11.188;2022-07-23T08:53:40;10.40;;;6.70;;
32864;SDS011;19219;44.500;11.188;2022-07-23T08:56:06;8.75;;;6.20;;
32864;SDS011;19219;44.500;11.188;2022-07-23T08:58:32;10.70;;;7.93;;
32864;SDS011;19219;44.500;11.188;2022-07-23T09:00:59;9.50;;;6.20;;
32864;SDS011;19219;44.500;11.188;2022-07-23T09:03:29;11.50;;;6.20;;
32864;SDS011;19219;44.500;11.188;2022-07-23T09:05:57;11.70;;;6.95;;
32864;SDS011;19219;44.500;11.188;2022-07-23T09:08:24;8.77;;;6.45;;
32864;SDS011;19219;44.500;11.188;2022-07-23T09:11:01;13.57;;;6.88;;
32864;SDS011;19219;44.500;11.188;2022-07-23T09:13:41;12.25;;;5.80;;
32864;SDS011;19219;44.500;11.188;2022-07-23T09:16:18;7.15;;;6.13;;
32864;SDS011;19219;44.500;11.188;2022-07-23T09:18:57;8.75;;;6.60;;
32864;SDS011;19219;44.500;11.188;2022-07-23T09:21:27;13.20;;;6.70;;
32864;SDS011;19219;44.500;11.188;2022-07-23T09:24:00;7.60;;;5.88;;
32864;SDS011;19219;44.500;11.188;2022-07-23T09:26:46;8.65;;;5.90;;
32864;SDS011;19219;44.500;11.188;2022-07-23T09:34:22;10.85;;;5.75;;
32864;SDS011;19219;44.500;11.188;2022-07-23T09:36:50;8.57;;;5.50;;
32864;SDS011;19219;44.500;11.188;2022-07-23T09:39:30;7.47;;;5.30;;
32864;SDS011;19219;44.500;11.188;2022-07-23T09:42:12;14.75;;;11.73;;
32864;SDS011;19219;44.500;11.188;2022-07-23T09:44:47;8.90;;;5.93;;
32864;SDS011;19219;44.500;11.188;2022-07-23T09:47:14;7.60;;;5.78;;
32864;SDS011;19219;44.500;11.188;2022-07-23T09:49:40;8.02;;;5.60;;
32864;SDS011;19219;44.500;11.188;2022-07-23T09:52:30;7.32;;;5.95;;
32864;SDS011;19219;44.500;11.188;2022-07-23T09:55:01;5.85;;;5.32;;
32864;SDS011;19219;44.500;11.188;2022-07-23T09:57:31;8.63;;;6.35;;
32864;SDS011;19219;44.500;11.188;2022-07-23T09:59:58;6.63;;;5.68;;
32864;SDS011;19219;44.500;11.188;2022-07-23T10:02:27;7.18;;;5.45;;
32864;SDS011;19219;44.500;11.188;2022-07-23T10:04:54;9.68;;;6.07;;
32864;SDS011;19219;44.500;11.188;2022-07-23T10:07:21;10.48;;;5.95;;
32864;SDS011;19219;44.500;11.188;2022-07-23T10:09:48;10.63;;;6.13;;
32864;SDS011;19219;44.500;11.188;2022-07-23T10:12:17;8.40;;;5.53;;
32864;SDS011;19219;44.500;11.188;2022-07-23T10:15:02;7.63;;;5.53;;
32864;SDS011;19219;44.500;11.188;2022-07-23T10:17:34;10.52;;;6.78;;
32864;SDS011;19219;44.500;11.188;2022-07-23T10:20:01;12.32;;;5.88;;
32864;SDS011;19219;44.500;11.188;2022-07-23T10:22:28;9.65;;;8.32;;
32864;SDS011;19219;44.500;11.188;2022-07-23T10:27:38;7.88;;;6.38;;
32864;SDS011;19219;44.500;11.188;2022-07-23T10:36:28;7.65;;;6.60;;
32864;SDS011;19219;44.500;11.188;2022-07-23T10:39:05;10.90;;;7.15;;
32864;SDS011;19219;44.500;11.188;2022-07-23T10:41:39;12.35;;;7.05;;
32864;SDS011;19219;44.500;11.188;2022-07-23T10:44:18;10.15;;;6.45;;
32864;SDS011;19219;44.500;11.188;2022-07-23T10:49:43;9.27;;;6.13;;
32864;SDS011;19219;44.500;11.188;2022-07-23T10:52:15;10.07;;;6.03;;
32864;SDS011;19219;44.500;11.188;2022-07-23T10:54:47;11.05;;;6.15;;
32864;SDS011;19219;44.500;11.188;2022-07-23T10:57:18;9.43;;;6.90;;
32864;SDS011;19219;44.500;11.188;2022-07-23T11:02:30;8.95;;;6.85;;
32864;SDS011;19219;44.500;11.188;2022-07-23T11:05:04;8.13;;;6.68;;
32864;SDS011;19219;44.500;11.188;2022-07-23T11:07:31;10.52;;;6.60;;
32864;SDS011;19219;44.500;11.188;2022-07-23T11:09:57;9.27;;;6.75;;
32864;SDS011;19219;44.500;11.188;2022-07-23T11:22:48;9.60;;;6.32;;
32864;SDS011;19219;44.500;11.188;2022-07-23T11:27:55;13.65;;;7.35;;
32864;SDS011;19219;44.500;11.188;2022-07-23T11:30:55;14.55;;;9.70;;
32864;SDS011;19219;44.500;11.188;2022-07-23T11:33:21;16.60;;;7.30;;
32864;SDS011;19219;44.500;11.188;2022-07-23T11:35:49;9.88;;;6.75;;
32864;SDS011;19219;44.500;11.188;2022-07-23T11:38:24;17.13;;;7.45;;
32864;SDS011;19219;44.500;11.188;2022-07-23T11:40:51;7.63;;;6.85;;
32864;SDS011;19219;44.500;11.188;2022-07-23T11:45:46;13.57;;;9.13;;
32864;SDS011;19219;44.500;11.188;2022-07-23T11:50:44;14.25;;;7.43;;
32864;SDS011;19219;44.500;11.188;2022-07-23T11:53:10;9.77;;;7.30;;
32864;SDS011;19219;44.500;11.188;2022-07-23T11:55:36;9.40;;;6.78;;
32864;SDS011;19219;44.500;11.188;2022-07-23T11:58:02;10.18;;;7.15;;
32864;SDS011;19219;44.500;11.188;2022-07-23T12:00:29;13.23;;;7.40;;
32864;SDS011;19219;44.500;11.188;2022-07-23T12:02:57;9.95;;;7.22;;
32864;SDS011;19219;44.500;11.188;2022-07-23T12:07:54;11.10;;;6.75;;
32864;SDS011;19219;44.500;11.188;2022-07-23T12:12:55;8.52;;;7.45;;
32864;SDS011;19219;44.500;11.188;2022-07-23T12:17:57;9.20;;;6.90;;
32864;SDS011;19219;44.500;11.188;2022-07-23T12:20:26;13.02;;;6.70;;
32864;SDS011;19219;44.500;11.188;2022-07-23T12:25:25;11.00;;;7.05;;
32864;SDS011;19219;44.500;11.188;2022-07-23T12:28:05;11.60;;;10.00;;
32864;SDS011;19219;44.500;11.188;2022-07-23T12:30:42;10.60;;;7.30;;
32864;SDS011;19219;44.500;11.188;2022-07-23T12:33:10;10.88;;;6.57;;
32864;SDS011;19219;44.500;11.188;2022-07-23T12:35:40;11.38;;;7.00;;
32864;SDS011;19219;44.500;11.188;2022-07-23T12:38:18;13.13;;;9.98;;
32864;SDS011;19219;44.500;11.188;2022-07-23T12:40:49;12.07;;;6.95;;
32864;SDS011;19219;44.500;11.188;2022-07-23T12:46:08;8.23;;;6.60;;
32864;SDS011;19219;44.500;11.188;2022-07-23T12:53:52;8.07;;;6.80;;
32864;SDS011;19219;44.500;11.188;2022-07-23T12:56:20;8.95;;;6.93;;
32864;SDS011;19219;44.500;11.188;2022-07-23T12:58:52;7.80;;;6.95;;
32864;SDS011;19219;44.500;11.188;2022-07-23T13:01:37;9.30;;;6.88;;
32864;SDS011;19219;44.500;11.188;2022-07-23T13:04:09;9.38;;;7.15;;
32864;SDS011;19219;44.500;11.188;2022-07-23T13:06:36;11.60;;;6.93;;
32864;SDS011;19219;44.500;11.188;2022-07-23T13:09:29;13.15;;;7.43;;
32864;SDS011;19219;44.500;11.188;2022-07-23T13:11:56;10.70;;;6.75;;
32864;SDS011;19219;44.500;11.188;2022-07-23T13:14:23;11.60;;;7.18;;
32864;SDS011;19219;44.500;11.188;2022-07-23T13:16:50;10.88;;;8.02;;
32864;SDS011;19219;44.500;11.188;2022-07-23T13:19:16;13.82;;;7.95;;
32864;SDS011;19219;44.500;11.188;2022-07-23T13:21:43;9.48;;;7.03;;
32864;SDS011;19219;44.500;11.188;2022-07-23T13:24:09;9.85;;;7.32;;
32864;SDS011;19219;44.500;11.188;2022-07-23T13:26:36;8.02;;;6.45;;
32864;SDS011;19219;44.500;11.188;2022-07-23T13:29:02;10.65;;;7.07;;
32864;SDS011;19219;44.500;11.188;2022-07-23T13:31:28;16.55;;;7.07;;
32864;SDS011;19219;44.500;11.188;2022-07-23T13:33:54;8.60;;;7.05;;
32864;SDS011;19219;44.500;11.188;2022-07-23T13:36:20;10.23;;;7.30;;
32864;SDS011;19219;44.500;11.188;2022-07-23T13:38:45;14.07;;;7.05;;
32864;SDS011;19219;44.500;11.188;2022-07-23T13:41:11;8.32;;;7.03;;
32864;SDS011;19219;44.500;11.188;2022-07-23T13:43:37;12.18;;;7.20;;
32864;SDS011;19219;44.500;11.188;2022-07-23T13:46:02;12.30;;;7.32;;
32864;SDS011;19219;44.500;11.188;2022-07-23T13:48:28;9.77;;;6.95;;
32864;SDS011;19219;44.500;11.188;2022-07-23T13:50:54;9.63;;;7.28;;
32864;SDS011;19219;44.500;11.188;2022-07-23T13:53:21;7.90;;;7.00;;
32864;SDS011;19219;44.500;11.188;2022-07-23T13:55:49;8.68;;;7.28;;
32864;SDS011;19219;44.500;11.188;2022-07-23T13:58:16;7.88;;;7.00;;
32864;SDS011;19219;44.500;11.188;2022-07-23T14:00:43;10.93;;;7.13;;
32864;SDS011;19219;44.500;11.188;2022-07-23T14:03:15;10.30;;;7.50;;
32864;SDS011;19219;44.500;11.188;2022-07-23T14:05:41;12.35;;;7.55;;
32864;SDS011;19219;44.500;11.188;2022-07-23T14:08:07;8.25;;;6.55;;
32864;SDS011;19219;44.500;11.188;2022-07-23T14:10:33;9.88;;;8.00;;
32864;SDS011;19219;44.500;11.188;2022-07-23T14:12:59;11.20;;;7.18;;
32864;SDS011;19219;44.500;11.188;2022-07-23T14:15:26;8.02;;;6.93;;
32864;SDS011;19219;44.500;11.188;2022-07-23T14:17:53;9.80;;;6.88;;
32864;SDS011;19219;44.500;11.188;2022-07-23T14:20:19;7.80;;;6.82;;
32864;SDS011;19219;44.500;11.188;2022-07-23T14:22:45;11.30;;;7.03;;
32864;SDS011;19219;44.500;11.188;2022-07-23T14:25:11;8.25;;;7.43;;
32864;SDS011;19219;44.500;11.188;2022-07-23T14:27:37;10.50;;;7.30;;
32864;SDS011;19219;44.500;11.188;2022-07-23T14:30:04;11.73;;;7.28;;
32864;SDS011;19219;44.500;11.188;2022-07-23T14:32:31;11.32;;;7.53;;
32864;SDS011;19219;44.500;11.188;2022-07-23T14:34:57;12.85;;;7.15;;
32864;SDS011;19219;44.500;11.188;2022-07-23T14:37:23;14.02;;;6.82;;
32864;SDS011;19219;44.500;11.188;2022-07-23T14:39:50;7.88;;;6.93;;
32864;SDS011;19219;44.500;11.188;2022-07-23T14:42:16;13.13;;;7.80;;
32864;SDS011;19219;44.500;11.188;2022-07-23T14:44:43;8.05;;;7.25;;
32864;SDS011;19219;44.500;11.188;2022-07-23T14:47:08;8.48;;;6.55;;
32864;SDS011;19219;44.500;11.188;2022-07-23T14:49:35;9.15;;;7.22;;
32864;SDS011;19219;44.500;11.188;2022-07-23T14:52:02;10.10;;;7.53;;
32864;SDS011;19219;44.500;11.188;2022-07-23T14:54:29;10.82;;;6.82;;
32864;SDS011;19219;44.500;11.188;2022-07-23T14:56:56;8.75;;;7.35;;
32864;SDS011;19219;44.500;11.188;2022-07-23T14:59:23;12.60;;;7.15;;
32864;SDS011;19219;44.500;11.188;2022-07-23T15:01:49;12.63;;;7.15;;
32864;SDS011;19219;44.500;11.188;2022-07-23T15:04:15;12.95;;;7.22;;
32864;SDS011;19219;44.500;11.188;2022-07-23T15:06:41;12.45;;;7.95;;
32864;SDS011;19219;44.500;11.188;2022-07-23T15:09:07;8.27;;;6.97;;
32864;SDS011;19219;44.500;11.188;2022-07-23T15:11:32;9.90;;;7.38;;
32864;SDS011;19219;44.500;11.188;2022-07-23T15:14:06;8.75;;;7.78;;
32864;SDS011;19219;44.500;11.188;2022-07-23T15:16:32;10.20;;;7.53;;
32864;SDS011;19219;44.500;11.188;2022-07-23T15:18:59;8.20;;;7.22;;
32864;SDS011;19219;44.500;11.188;2022-07-23T15:21:26;9.80;;;7.60;;
32864;SDS011;19219;44.500;11.188;2022-07-23T15:23:54;12.73;;;7.25;;
32864;SDS011;19219;44.500;11.188;2022-07-23T15:26:20;12.48;;;6.93;;
32864;SDS011;19219;44.500;11.188;2022-07-23T15:28:48;13.65;;;7.32;;
32864;SDS011;19219;44.500;11.188;2022-07-23T15:31:13;13.63;;;7.55;;
32864;SDS011;19219;44.500;11.188;2022-07-23T15:33:39;10.02;;;7.32;;
32864;SDS011;19219;44.500;11.188;2022-07-23T15:36:05;8.48;;;7.05;;